createdAt,value
2019-06-20T00:00:49.902Z,24.36
2019-06-20T00:03:19.649Z,24.34
2019-06-20T00:05:48.219Z,24.33
2019-06-20T00:08:16.703Z,24.29
2019-06-20T00:10:45.200Z,24.26
2019-06-20T00:13:13.709Z,24.24
2019-06-20T00:15:42.207Z,24.21
2019-06-20T00:18:10.686Z,24.18
2019-06-20T00:20:39.213Z,24.15
2019-06-20T00:23:07.701Z,24.11
2019-06-20T00:25:36.187Z,24.06
2019-06-20T00:28:04.806Z,24.02
2019-06-20T00:30:33.271Z,23.98
2019-06-20T00:33:01.801Z,23.96
2019-06-20T00:35:30.343Z,23.94
2019-06-20T00:37:58.899Z,23.94
2019-06-20T00:40:27.379Z,23.93
2019-06-20T00:42:55.901Z,23.93
2019-06-20T00:45:26.051Z,23.90
2019-06-20T00:47:54.531Z,23.89
2019-06-20T00:50:23.013Z,23.88
2019-06-20T00:52:51.510Z,23.86
2019-06-20T00:55:20.091Z,23.84
2019-06-20T00:57:48.571Z,23.85
2019-06-20T01:00:18.191Z,23.83
2019-06-20T01:02:46.724Z,23.80
2019-06-20T01:05:16.241Z,23.80
2019-06-20T01:07:44.740Z,23.80
2019-06-20T01:10:13.335Z,23.81
2019-06-20T01:12:41.885Z,23.79
2019-06-20T01:15:10.736Z,23.78
2019-06-20T01:17:39.519Z,23.74
2019-06-20T01:20:09.592Z,23.72
2019-06-20T01:22:38.260Z,23.70
2019-06-20T01:25:08.480Z,23.67
2019-06-20T01:27:38.511Z,23.62
2019-06-20T01:30:08.246Z,23.59
2019-06-20T01:32:36.784Z,23.56
2019-06-20T01:35:07.124Z,23.51
2019-06-20T01:37:35.605Z,23.48
2019-06-20T01:40:05.183Z,23.46
2019-06-20T01:42:33.701Z,23.42
2019-06-20T01:45:02.261Z,23.41
2019-06-20T01:47:30.787Z,23.41
2019-06-20T01:49:59.268Z,23.41
2019-06-20T01:52:27.756Z,23.40
2019-06-20T01:54:56.261Z,23.42
2019-06-20T01:57:24.818Z,23.41
2019-06-20T01:59:53.293Z,23.40
2019-06-20T02:02:21.818Z,23.40
2019-06-20T02:04:50.295Z,23.38
2019-06-20T02:07:19.051Z,23.37
2019-06-20T02:09:47.609Z,23.35
2019-06-20T02:12:16.091Z,23.36
2019-06-20T02:14:44.578Z,23.36
2019-06-20T02:17:13.112Z,23.36
2019-06-20T02:19:41.614Z,23.35
2019-06-20T02:22:10.085Z,23.31
2019-06-20T02:24:38.621Z,23.29
2019-06-20T02:27:07.108Z,23.27
2019-06-20T02:29:35.582Z,23.24
2019-06-20T02:32:04.099Z,23.22
2019-06-20T02:34:32.586Z,23.20
2019-06-20T02:37:01.113Z,23.18
2019-06-20T02:39:29.647Z,23.15
2019-06-20T02:41:58.117Z,23.12
2019-06-20T02:44:30.405Z,23.09
2019-06-20T02:46:56.924Z,23.07
2019-06-20T02:49:25.452Z,23.05
2019-06-20T02:51:54.374Z,23.05
2019-06-20T02:54:23.050Z,23.02
2019-06-20T02:56:51.526Z,23.01
2019-06-20T02:59:20.085Z,23.01
2019-06-20T03:01:48.698Z,23.00
2019-06-20T03:04:17.198Z,22.97
2019-06-20T03:06:45.843Z,22.94
2019-06-20T03:09:15.387Z,22.93
2019-06-20T03:11:43.935Z,22.94
2019-06-20T03:14:12.514Z,22.94
2019-06-20T03:16:41.193Z,22.94
2019-06-20T03:19:09.678Z,22.94
2019-06-20T03:21:38.170Z,22.94
2019-06-20T03:24:06.709Z,22.94
2019-06-20T03:26:35.222Z,22.95
2019-06-20T03:29:03.714Z,22.96
2019-06-20T03:31:32.243Z,23.00
2019-06-20T03:34:00.726Z,23.00
2019-06-20T03:36:29.208Z,22.98
2019-06-20T03:38:57.751Z,22.99
2019-06-20T03:41:26.301Z,23.01
2019-06-20T03:43:54.790Z,23.01
2019-06-20T03:46:23.307Z,23.00
2019-06-20T03:48:51.805Z,22.99
2019-06-20T03:51:20.287Z,23.00
2019-06-20T03:53:48.883Z,23.02
2019-06-20T03:56:19.027Z,23.05
2019-06-20T03:58:47.513Z,23.08
2019-06-20T04:01:16.065Z,23.11
2019-06-20T04:03:44.538Z,23.15
2019-06-20T04:06:13.034Z,23.19
2019-06-20T04:08:41.585Z,23.34
2019-06-20T04:11:10.355Z,23.68
2019-06-20T04:13:38.841Z,24.01
2019-06-20T04:16:08.998Z,24.22
2019-06-20T04:18:37.662Z,24.29
2019-06-20T04:21:06.219Z,24.29
2019-06-20T04:23:34.739Z,24.31
2019-06-20T04:26:03.240Z,24.31
2019-06-20T04:28:31.735Z,24.34
2019-06-20T04:31:00.268Z,24.58
2019-06-20T04:33:28.846Z,24.76
2019-06-20T04:35:57.436Z,24.82
2019-06-20T04:38:25.982Z,25.09
2019-06-20T04:40:54.485Z,25.16
2019-06-20T04:43:23.000Z,25.27
2019-06-20T04:45:53.199Z,25.36
2019-06-20T04:48:21.688Z,25.63
2019-06-20T04:50:50.227Z,25.85
2019-06-20T04:53:18.750Z,25.95
2019-06-20T04:55:48.186Z,25.96
2019-06-20T04:58:16.691Z,26.07
2019-06-20T05:00:47.487Z,26.15
2019-06-20T05:03:15.978Z,26.13
2019-06-20T05:05:45.957Z,26.10
2019-06-20T05:08:14.509Z,26.04
2019-06-20T05:10:42.997Z,26.07
2019-06-20T05:13:11.864Z,26.21
2019-06-20T05:15:52.055Z,26.40
2019-06-20T05:18:10.776Z,26.60
2019-06-20T05:20:39.324Z,26.80
2019-06-20T05:23:07.866Z,26.90
2019-06-20T05:25:36.350Z,26.96
2019-06-20T05:28:04.857Z,26.93
2019-06-20T05:30:33.387Z,26.83
2019-06-20T05:33:01.876Z,26.72
2019-06-20T05:35:30.378Z,26.64
2019-06-20T05:37:58.899Z,26.58
2019-06-20T05:40:27.465Z,26.55
2019-06-20T05:42:55.960Z,26.53
2019-06-20T05:45:24.495Z,26.52
2019-06-20T05:47:53.074Z,26.54
2019-06-20T05:50:21.687Z,26.60
2019-06-20T05:52:50.266Z,26.62
2019-06-20T05:55:18.974Z,26.69
2019-06-20T05:57:47.566Z,26.75
2019-06-20T06:00:16.542Z,26.80
2019-06-20T06:02:45.090Z,26.82
2019-06-20T06:05:13.760Z,26.89
2019-06-20T06:07:42.359Z,26.86
2019-06-20T06:10:11.015Z,26.93
2019-06-20T06:12:39.512Z,26.99
2019-06-20T06:15:09.682Z,27.05
2019-06-20T06:17:38.711Z,27.09
2019-06-20T06:20:07.934Z,27.14
2019-06-20T06:22:36.514Z,27.21
2019-06-20T06:25:06.375Z,27.16
2019-06-20T06:27:34.914Z,27.19
2019-06-20T06:30:05.681Z,27.17
2019-06-20T06:32:40.097Z,27.14
2019-06-20T06:35:07.141Z,27.12
2019-06-20T06:37:35.682Z,27.10
2019-06-20T06:40:06.314Z,27.11
2019-06-20T06:42:34.778Z,27.10
2019-06-20T06:45:05.063Z,27.09
2019-06-20T06:47:33.557Z,27.03
2019-06-20T06:50:02.047Z,26.97
2019-06-20T06:52:30.854Z,26.96
2019-06-20T06:54:59.376Z,26.90
2019-06-20T06:57:27.911Z,26.87
2019-06-20T06:59:56.504Z,26.85
2019-06-20T07:02:25.005Z,26.88
2019-06-20T07:04:53.494Z,26.86
2019-06-20T07:07:22.041Z,26.84
2019-06-20T07:09:50.533Z,26.81
2019-06-20T07:12:19.015Z,26.77
2019-06-20T07:14:47.554Z,26.70
2019-06-20T07:17:17.055Z,26.64
2019-06-20T07:19:45.687Z,26.59
2019-06-20T07:22:14.232Z,26.56
2019-06-20T07:24:42.720Z,26.63
2019-06-20T07:27:11.271Z,26.66
2019-06-20T07:29:39.805Z,26.69
2019-06-20T07:32:08.285Z,26.73
2019-06-20T07:34:36.812Z,26.81
2019-06-20T07:37:05.315Z,26.83
2019-06-20T07:39:33.809Z,26.85
2019-06-20T07:42:02.334Z,26.87
2019-06-20T07:44:30.876Z,26.85
2019-06-20T07:46:59.370Z,26.85
2019-06-20T07:49:27.869Z,26.84
2019-06-20T07:51:56.388Z,26.82
2019-06-20T07:54:24.919Z,26.79
2019-06-20T07:56:53.416Z,26.75
2019-06-20T07:59:23.606Z,26.74
2019-06-20T08:01:52.107Z,26.74
2019-06-20T08:04:20.665Z,26.88
2019-06-20T08:06:49.172Z,27.04
2019-06-20T08:09:17.776Z,27.16
2019-06-20T08:11:46.300Z,27.21
2019-06-20T08:14:16.506Z,27.26
2019-06-20T08:16:45.000Z,27.27
2019-06-20T08:19:13.973Z,27.29
2019-06-20T08:21:44.205Z,27.33
2019-06-20T08:24:12.763Z,27.32
2019-06-20T08:26:41.320Z,27.31
2019-06-20T08:29:20.344Z,27.29
2019-06-20T08:31:40.366Z,27.29
2019-06-20T08:34:10.519Z,27.36
2019-06-20T08:36:39.124Z,27.41
2019-06-20T08:39:09.761Z,27.45
2019-06-20T08:41:38.254Z,27.45
2019-06-20T08:44:07.343Z,27.42
2019-06-20T08:46:35.995Z,27.41
2019-06-20T08:49:05.884Z,27.41
2019-06-20T08:51:34.404Z,27.49
2019-06-20T08:54:03.415Z,27.58
2019-06-20T08:56:32.129Z,27.65
2019-06-20T08:59:00.691Z,27.68
2019-06-20T09:01:29.867Z,27.70
2019-06-20T09:03:58.662Z,27.71
2019-06-20T09:06:27.307Z,27.69
2019-06-20T09:08:56.723Z,27.66
2019-06-20T09:11:26.012Z,27.60
2019-06-20T09:13:55.461Z,27.48
2019-06-20T09:16:24.940Z,27.37
2019-06-20T09:18:54.949Z,27.28
2019-06-20T09:21:24.711Z,27.17
2019-06-20T09:23:54.202Z,27.04
2019-06-20T09:26:22.951Z,26.95
2019-06-20T09:28:52.682Z,26.92
2019-06-20T09:31:21.688Z,26.93
2019-06-20T09:33:52.172Z,26.90
2019-06-20T09:36:22.699Z,26.86
2019-06-20T09:38:52.471Z,26.81
2019-06-20T09:41:21.473Z,26.78
2019-06-20T09:43:51.092Z,26.76
2019-06-20T09:46:20.237Z,26.74
2019-06-20T09:48:49.318Z,26.80
2019-06-20T09:51:18.989Z,26.86
2019-06-20T09:53:48.475Z,26.97
2019-06-20T09:56:17.380Z,27.14
2019-06-20T09:58:47.848Z,27.29
2019-06-20T10:01:16.133Z,27.34
2019-06-20T10:03:46.453Z,27.36
2019-06-20T10:06:15.011Z,27.34
2019-06-20T10:08:43.537Z,27.32
2019-06-20T10:11:11.985Z,27.32
2019-06-20T10:13:40.550Z,27.32
2019-06-20T10:16:09.093Z,27.27
2019-06-20T10:18:37.584Z,27.14
2019-06-20T10:21:07.757Z,27.06
2019-06-20T10:23:37.649Z,27.00
2019-06-20T10:26:06.225Z,26.94
2019-06-20T10:28:34.765Z,26.97
2019-06-20T10:31:03.259Z,27.03
2019-06-20T10:33:31.753Z,27.10
2019-06-20T10:36:00.271Z,27.16
2019-06-20T10:38:28.767Z,27.20
2019-06-20T10:40:59.903Z,27.21
2019-06-20T10:43:27.512Z,27.22
2019-06-20T10:45:56.756Z,27.23
2019-06-20T10:48:25.562Z,27.29
2019-06-20T10:50:55.745Z,27.35
2019-06-20T10:53:24.229Z,27.38
2019-06-20T10:55:52.705Z,27.38
2019-06-20T10:58:21.330Z,27.42
2019-06-20T11:00:50.425Z,27.50
2019-06-20T11:03:19.117Z,27.65
2019-06-20T11:05:48.179Z,27.85
2019-06-20T11:08:16.938Z,27.94
2019-06-20T11:10:45.501Z,27.97
2019-06-20T11:13:14.043Z,27.99
2019-06-20T11:15:42.540Z,27.97
2019-06-20T11:18:11.030Z,27.96
2019-06-20T11:20:41.031Z,27.90
2019-06-20T11:23:09.754Z,27.86
2019-06-20T11:25:40.164Z,27.79
2019-06-20T11:28:08.799Z,27.74
2019-06-20T11:30:52.992Z,27.66
2019-06-20T11:33:08.069Z,27.52
2019-06-20T11:35:37.760Z,27.38
2019-06-20T11:38:06.914Z,27.23
2019-06-20T11:40:36.814Z,27.08
2019-06-20T11:43:05.719Z,26.94
2019-06-20T11:45:35.422Z,26.82
2019-06-20T11:48:04.630Z,26.74
2019-06-20T11:50:34.408Z,26.68
2019-06-20T11:53:03.771Z,26.62
2019-06-20T11:55:32.337Z,26.03
2019-06-20T11:58:00.947Z,26.61
2019-06-20T12:00:29.898Z,26.63
2019-06-20T12:02:58.402Z,26.65
2019-06-20T12:05:27.759Z,26.66
2019-06-20T12:07:56.228Z,26.65
2019-06-20T12:10:24.797Z,26.64
2019-06-20T12:12:53.343Z,26.63
2019-06-20T12:15:23.504Z,26.66
2019-06-20T12:17:52.426Z,26.69
2019-06-20T12:20:21.938Z,26.69
2019-06-20T12:22:50.914Z,26.63
2019-06-20T12:25:20.070Z,26.58
2019-06-20T12:27:49.738Z,26.54
2019-06-20T12:30:19.682Z,26.51
2019-06-20T12:32:49.401Z,26.48
2019-06-20T12:35:19.050Z,26.48
2019-06-20T12:37:47.952Z,26.56
2019-06-20T12:40:16.701Z,26.72
2019-06-20T12:42:46.640Z,26.88
2019-06-20T12:45:16.088Z,27.03
2019-06-20T12:47:45.908Z,27.21
2019-06-20T12:50:15.296Z,27.39
2019-06-20T12:52:45.446Z,27.55
2019-06-20T12:55:14.105Z,27.77
2019-06-20T12:57:44.055Z,27.98
2019-06-20T13:00:13.847Z,28.14
2019-06-20T13:02:43.732Z,28.27
2019-06-20T13:05:14.556Z,28.32
2019-06-20T13:07:44.233Z,28.34
2019-06-20T13:10:14.026Z,28.40
2019-06-20T13:12:44.022Z,28.49
2019-06-20T13:15:13.428Z,28.56
2019-06-20T13:17:43.237Z,28.61
2019-06-20T13:20:12.654Z,28.67
2019-06-20T13:22:42.735Z,28.76
2019-06-20T13:25:12.654Z,28.78
2019-06-20T13:27:41.179Z,28.81
2019-06-20T13:30:10.794Z,28.77
2019-06-20T13:32:40.179Z,28.74
2019-06-20T13:35:09.830Z,28.78
2019-06-20T13:37:39.817Z,28.82
2019-06-20T13:40:12.068Z,28.86
2019-06-20T13:42:42.123Z,28.91
2019-06-20T13:45:20.655Z,28.89
2019-06-20T13:47:50.109Z,28.86
2019-06-20T13:50:20.361Z,28.77
2019-06-20T13:52:51.335Z,28.70
2019-06-20T13:55:20.200Z,28.70
2019-06-20T13:57:49.268Z,28.70
2019-06-20T14:00:20.395Z,28.69
2019-06-20T14:02:49.535Z,28.69
2019-06-20T14:05:19.397Z,28.74
2019-06-20T14:07:51.859Z,28.73
2019-06-20T14:10:18.448Z,28.73
2019-06-20T14:12:47.014Z,28.75
2019-06-20T14:15:16.090Z,28.74
2019-06-20T14:17:44.929Z,28.77
2019-06-20T14:20:14.067Z,28.79
2019-06-20T14:22:42.934Z,28.80
2019-06-20T14:25:11.825Z,28.77
2019-06-20T14:27:40.382Z,28.70
2019-06-20T14:30:10.450Z,28.63
2019-06-20T14:32:39.303Z,28.59
2019-06-20T14:35:09.037Z,28.55
2019-06-20T14:37:37.571Z,28.53
2019-06-20T14:40:07.670Z,28.57
2019-06-20T14:42:37.403Z,28.59
2019-06-20T14:45:07.746Z,28.60
2019-06-20T14:47:36.664Z,28.57
2019-06-20T14:50:08.768Z,28.55
2019-06-20T14:52:37.315Z,28.50
2019-06-20T14:55:10.355Z,28.43
2019-06-20T14:57:38.923Z,28.40
2019-06-20T15:00:09.652Z,28.43
2019-06-20T15:02:39.083Z,28.47
2019-06-20T15:05:20.542Z,28.49
2019-06-20T15:07:51.209Z,28.53
2019-06-20T15:10:20.959Z,28.60
2019-06-20T15:12:51.638Z,28.61
2019-06-20T15:15:19.776Z,28.56
2019-06-20T15:17:50.342Z,28.52
2019-06-20T15:20:18.991Z,28.45
2019-06-20T15:22:49.290Z,28.34
2019-06-20T15:25:17.869Z,28.26
2019-06-20T15:27:51.091Z,28.19
2019-06-20T15:30:19.380Z,28.11
2019-06-20T15:33:00.850Z,28.02
2019-06-20T15:35:19.262Z,27.96
2019-06-20T15:37:49.660Z,27.93
2019-06-20T15:40:18.282Z,27.94
2019-06-20T15:42:47.488Z,27.93
2019-06-20T15:45:18.026Z,27.92
2019-06-20T15:47:46.543Z,27.90
2019-06-20T15:50:15.246Z,27.87
2019-06-20T15:52:43.765Z,27.85
2019-06-20T15:55:12.953Z,27.83
2019-06-20T15:57:41.498Z,27.81
2019-06-20T16:00:11.529Z,27.82
2019-06-20T16:02:40.013Z,27.84
2019-06-20T16:05:08.888Z,27.90
2019-06-20T16:07:37.490Z,28.06
2019-06-20T16:10:07.973Z,28.22
2019-06-20T16:12:36.502Z,28.37
2019-06-20T16:15:09.526Z,28.51
2019-06-20T16:17:38.075Z,28.61
2019-06-20T16:20:07.233Z,28.75
2019-06-20T16:22:35.722Z,28.86
2019-06-20T16:25:05.434Z,29.03
2019-06-20T16:27:33.970Z,29.22
2019-06-20T16:30:02.495Z,29.27
2019-06-20T16:32:31.015Z,29.24
2019-06-20T16:34:59.526Z,29.15
2019-06-20T16:37:29.519Z,29.03
2019-06-20T16:39:58.031Z,28.90
2019-06-20T16:42:26.589Z,28.70
2019-06-20T16:44:55.066Z,28.60
2019-06-20T16:47:23.562Z,28.45
2019-06-20T16:49:52.124Z,28.71
2019-06-20T16:52:20.626Z,29.03
2019-06-20T16:54:49.142Z,29.38
2019-06-20T16:57:17.733Z,29.75
2019-06-20T16:59:46.257Z,30.14
2019-06-20T17:02:14.708Z,30.52
2019-06-20T17:04:43.256Z,30.87
2019-06-20T17:07:11.816Z,31.14
2019-06-20T17:09:40.331Z,31.35
2019-06-20T17:12:11.170Z,31.53
2019-06-20T17:14:39.237Z,31.65
2019-06-20T17:17:07.721Z,31.77
2019-06-20T17:19:36.236Z,31.85
2019-06-20T17:22:04.828Z,31.92
2019-06-20T17:24:33.361Z,31.96
2019-06-20T17:27:01.870Z,31.96
2019-06-20T17:29:30.432Z,31.94
2019-06-20T17:31:59.108Z,31.74
2019-06-20T17:34:27.666Z,31.66
2019-06-20T17:36:56.156Z,31.61
2019-06-20T17:39:25.743Z,31.58
2019-06-20T17:41:55.417Z,31.56
2019-06-20T17:44:27.334Z,31.50
2019-06-20T17:46:54.574Z,31.48
2019-06-20T17:49:25.587Z,31.42
2019-06-20T17:51:54.085Z,31.37
2019-06-20T17:54:22.581Z,31.26
2019-06-20T17:56:51.099Z,31.05
2019-06-20T17:59:22.679Z,30.88
2019-06-20T18:01:49.784Z,30.63
2019-06-20T18:04:18.317Z,30.34
2019-06-20T18:06:46.815Z,30.01
2019-06-20T18:09:15.302Z,29.70
2019-06-20T18:11:43.824Z,29.41
2019-06-20T18:14:12.850Z,29.14
2019-06-20T18:16:43.354Z,28.85
2019-06-20T18:19:12.110Z,28.53
2019-06-20T18:21:40.611Z,28.30
2019-06-20T18:24:09.183Z,28.06
2019-06-20T18:26:37.720Z,27.83
2019-06-20T18:29:06.344Z,27.66
2019-06-20T18:31:34.876Z,27.53
2019-06-20T18:34:03.425Z,27.40
2019-06-20T18:36:31.916Z,27.27
2019-06-20T18:39:00.423Z,27.14
2019-06-20T18:41:30.655Z,27.04
2019-06-20T18:43:59.137Z,26.91
2019-06-20T18:46:27.637Z,26.81
2019-06-20T18:48:59.572Z,26.71
2019-06-20T18:51:28.060Z,26.64
2019-06-20T18:53:56.566Z,26.56
2019-06-20T18:59:12.575Z,26.41
2019-06-20T19:01:42.468Z,26.30
2019-06-20T19:04:10.952Z,26.20
2019-06-20T19:06:39.618Z,26.09
2019-06-20T19:09:09.143Z,26.00
2019-06-20T19:11:37.643Z,25.91
2019-06-20T19:14:06.220Z,25.81
2019-06-20T19:16:34.757Z,25.69
2019-06-20T19:19:03.253Z,25.60
2019-06-20T19:21:31.764Z,25.49
2019-06-20T19:24:00.460Z,25.39
2019-06-20T19:26:28.968Z,25.31
2019-06-20T19:28:57.456Z,25.22
2019-06-20T19:31:26.024Z,25.14
2019-06-20T19:33:54.579Z,25.04
2019-06-20T19:36:23.090Z,24.94
2019-06-20T19:38:51.666Z,24.85
2019-06-20T19:41:21.289Z,24.78
2019-06-20T19:43:51.611Z,24.72
2019-06-20T19:46:20.154Z,24.63
2019-06-20T19:48:48.650Z,24.56
2019-06-20T19:51:17.209Z,24.50
2019-06-20T19:53:46.161Z,24.44
2019-06-20T19:56:14.796Z,24.36
2019-06-20T19:58:43.281Z,24.31
2019-06-20T20:01:11.890Z,24.24
2019-06-20T20:03:40.461Z,24.20
2019-06-20T20:06:09.121Z,24.15
2019-06-20T20:08:37.739Z,24.09
2019-06-20T20:11:06.436Z,24.02
2019-06-20T20:13:35.146Z,23.97
2019-06-20T20:16:04.015Z,23.92
2019-06-20T20:18:33.271Z,23.90
2019-06-20T20:21:02.071Z,23.87
2019-06-20T20:23:30.721Z,23.81
2019-06-20T20:25:59.240Z,23.79
2019-06-20T20:28:27.810Z,23.76
2019-06-20T20:30:57.094Z,23.73
2019-06-20T20:33:25.565Z,23.68
2019-06-20T20:35:55.765Z,23.63
2019-06-20T20:38:24.499Z,23.56
2019-06-20T20:40:52.983Z,23.46
2019-06-20T20:43:21.475Z,23.38
2019-06-20T20:45:50.441Z,23.27
2019-06-20T20:48:19.011Z,23.15
2019-06-20T20:50:47.585Z,22.98
2019-06-20T20:53:16.128Z,22.83
2019-06-20T20:55:44.681Z,22.74
2019-06-20T20:58:13.225Z,22.67
2019-06-20T21:00:50.862Z,22.61
2019-06-20T21:03:19.353Z,22.57
2019-06-20T21:05:51.763Z,22.55
2019-06-20T21:08:18.120Z,22.51
2019-06-20T21:10:46.685Z,22.45
2019-06-20T21:13:15.194Z,22.38
2019-06-20T21:15:43.793Z,22.35
2019-06-20T21:18:12.286Z,22.32
2019-06-20T21:20:40.944Z,22.31
2019-06-20T21:23:09.482Z,22.31
2019-06-20T21:25:37.977Z,22.30
2019-06-20T21:28:06.467Z,22.28
2019-06-20T21:30:35.000Z,22.23
2019-06-20T21:33:03.572Z,22.19
2019-06-20T21:35:32.071Z,22.17
2019-06-20T21:38:00.602Z,22.18
2019-06-20T21:40:29.158Z,22.17
2019-06-20T21:42:57.679Z,22.15
2019-06-20T21:45:26.294Z,22.13
2019-06-20T21:47:55.036Z,22.12
2019-06-20T21:50:23.680Z,22.11
2019-06-20T21:52:52.223Z,22.11
2019-06-20T21:55:20.783Z,22.10
2019-06-20T21:57:49.300Z,22.09
2019-06-20T22:00:39.273Z,22.07
2019-06-20T22:03:08.213Z,22.04
2019-06-20T22:05:36.715Z,21.99
2019-06-20T22:08:05.614Z,21.96
2019-06-20T22:10:34.238Z,21.92
2019-06-20T22:13:02.749Z,21.87
2019-06-20T22:15:31.418Z,21.82
2019-06-20T22:18:00.127Z,21.77
2019-06-20T22:20:28.892Z,21.73
2019-06-20T22:22:57.514Z,21.71
2019-06-20T22:25:26.725Z,21.66
2019-06-20T22:27:55.226Z,21.64
2019-06-20T22:30:42.231Z,21.63
2019-06-20T22:33:10.915Z,21.62
2019-06-20T22:35:39.492Z,21.62
2019-06-20T22:38:08.046Z,21.62
2019-06-20T22:40:36.542Z,21.62
2019-06-20T22:43:05.206Z,21.61
2019-06-20T22:45:33.800Z,21.62
2019-06-20T22:48:02.843Z,21.63
2019-06-20T22:50:31.409Z,21.62
2019-06-20T22:52:59.939Z,21.62
2019-06-20T22:55:28.450Z,21.64
2019-06-20T22:57:56.949Z,21.62
2019-06-20T23:00:25.808Z,21.58
2019-06-20T23:02:54.300Z,21.53
2019-06-20T23:05:22.788Z,21.50
2019-06-20T23:07:51.391Z,21.44
2019-06-20T23:10:19.963Z,21.40
2019-06-20T23:12:48.467Z,21.32
2019-06-20T23:15:17.969Z,21.25
2019-06-20T23:17:46.458Z,21.20
2019-06-20T23:20:15.025Z,21.14
2019-06-20T23:22:43.570Z,21.09
2019-06-20T23:25:13.614Z,21.04
2019-06-20T23:27:42.186Z,21.00
2019-06-20T23:30:13.033Z,20.99
2019-06-20T23:32:41.529Z,20.96
2019-06-20T23:35:10.394Z,20.93
2019-06-20T23:37:38.939Z,20.91
2019-06-20T23:40:08.178Z,20.90
2019-06-20T23:42:36.667Z,20.87
2019-06-20T23:45:06.989Z,20.85
2019-06-20T23:47:35.563Z,20.82
2019-06-20T23:50:06.118Z,20.81
2019-06-20T23:52:48.259Z,20.83
2019-06-20T23:55:16.814Z,20.84
2019-06-20T23:57:45.321Z,20.83
